createdAt,value
2019-03-24T00:00:37.708Z,37.56
2019-03-24T00:03:06.647Z,37.58
2019-03-24T00:05:35.559Z,37.62
2019-03-24T00:08:05.475Z,37.72
2019-03-24T00:10:34.432Z,37.80
2019-03-24T00:13:05.240Z,37.86
2019-03-24T00:15:34.593Z,37.91
2019-03-24T00:18:04.528Z,37.93
2019-03-24T00:20:33.614Z,37.95
2019-03-24T00:23:02.588Z,37.99
2019-03-24T00:25:31.497Z,38.02
2019-03-24T00:28:00.412Z,38.05
2019-03-24T00:30:29.303Z,38.10
2019-03-24T00:32:58.188Z,38.14
2019-03-24T00:35:27.396Z,38.14
2019-03-24T00:37:56.264Z,38.18
2019-03-24T00:40:26.280Z,38.24
2019-03-24T00:42:55.186Z,38.27
2019-03-24T00:45:24.090Z,38.32
2019-03-24T00:47:53.166Z,38.37
2019-03-24T00:50:22.072Z,38.37
2019-03-24T00:52:51.714Z,38.44
2019-03-24T00:55:21.818Z,38.51
2019-03-24T00:57:50.801Z,38.57
2019-03-24T01:00:42.585Z,38.60
2019-03-24T01:03:11.894Z,38.69
2019-03-24T01:05:41.047Z,38.74
2019-03-24T01:08:10.214Z,38.82
2019-03-24T01:10:42.018Z,38.87
2019-03-24T01:13:13.896Z,38.97
2019-03-24T01:15:47.792Z,39.01
2019-03-24T01:18:15.125Z,39.05
2019-03-24T01:20:44.201Z,39.08
2019-03-24T01:23:13.832Z,39.10
2019-03-24T01:25:42.762Z,39.12
2019-03-24T01:28:11.627Z,39.13
2019-03-24T01:30:40.516Z,39.18
2019-03-24T01:33:09.706Z,39.20
2019-03-24T01:35:38.606Z,39.23
2019-03-24T01:38:07.781Z,39.27
2019-03-24T01:40:36.653Z,39.30
2019-03-24T01:43:05.524Z,39.35
2019-03-24T01:45:34.428Z,39.37
2019-03-24T01:48:03.384Z,39.43
2019-03-24T01:50:32.279Z,39.50
2019-03-24T01:53:01.149Z,39.57
2019-03-24T01:55:30.058Z,39.60
2019-03-24T01:57:58.953Z,39.63
2019-03-24T02:00:28.260Z,39.66
2019-03-24T02:02:57.280Z,39.65
2019-03-24T02:05:27.429Z,39.73
2019-03-24T02:07:56.478Z,39.79
2019-03-24T02:10:25.408Z,39.83
2019-03-24T02:12:54.390Z,39.88
2019-03-24T02:15:23.375Z,39.91
2019-03-24T02:17:54.028Z,39.92
2019-03-24T02:20:23.555Z,39.94
2019-03-24T02:22:52.506Z,39.98
2019-03-24T02:25:21.773Z,40.04
2019-03-24T02:27:50.739Z,40.07
2019-03-24T02:30:19.617Z,40.09
2019-03-24T02:32:48.613Z,40.09
2019-03-24T02:35:17.501Z,40.15
2019-03-24T02:37:46.699Z,40.16
2019-03-24T02:40:15.630Z,40.22
2019-03-24T02:42:44.559Z,40.26
2019-03-24T02:45:14.949Z,40.29
2019-03-24T02:47:43.935Z,40.35
2019-03-24T02:50:14.213Z,40.36
2019-03-24T02:52:44.926Z,40.37
2019-03-24T02:55:15.105Z,40.43
2019-03-24T02:57:44.098Z,40.51
2019-03-24T03:00:13.514Z,40.57
2019-03-24T03:02:42.761Z,40.65
2019-03-24T03:05:11.760Z,40.71
2019-03-24T03:07:41.631Z,40.74
2019-03-24T03:10:10.813Z,40.79
2019-03-24T03:12:39.675Z,40.80
2019-03-24T03:15:09.192Z,40.84
2019-03-24T03:17:38.508Z,40.87
2019-03-24T03:20:08.904Z,40.91
2019-03-24T03:22:37.865Z,40.93
2019-03-24T03:25:07.030Z,40.96
2019-03-24T03:27:36.159Z,41.03
2019-03-24T03:30:06.219Z,41.08
2019-03-24T03:32:35.128Z,41.13
2019-03-24T03:35:05.008Z,41.25
2019-03-24T03:37:33.987Z,41.28
2019-03-24T03:40:03.868Z,41.29
2019-03-24T03:42:32.945Z,41.29
2019-03-24T03:45:02.583Z,41.31
2019-03-24T03:47:31.899Z,41.31
2019-03-24T03:50:00.798Z,41.37
2019-03-24T03:52:30.017Z,41.41
2019-03-24T03:54:59.158Z,41.46
2019-03-24T03:57:28.804Z,41.52
2019-03-24T03:59:57.944Z,41.55
2019-03-24T04:02:26.814Z,41.60
2019-03-24T04:04:56.038Z,41.64
2019-03-24T04:07:26.776Z,41.66
2019-03-24T04:09:55.917Z,41.69
2019-03-24T04:12:25.012Z,41.70
2019-03-24T04:14:54.182Z,41.72
2019-03-24T04:17:23.062Z,41.74
2019-03-24T04:19:53.066Z,41.76
2019-03-24T04:22:22.138Z,41.78
2019-03-24T04:24:55.813Z,41.80
2019-03-24T04:27:24.727Z,41.83
2019-03-24T04:29:53.569Z,41.85
2019-03-24T04:32:22.472Z,41.87
2019-03-24T04:34:51.625Z,41.89
2019-03-24T04:37:20.481Z,41.92
2019-03-24T04:39:49.397Z,41.98
2019-03-24T04:42:18.258Z,42.05
2019-03-24T04:44:47.115Z,42.14
2019-03-24T04:47:17.038Z,42.22
2019-03-24T04:49:45.942Z,42.27
2019-03-24T04:52:14.852Z,42.33
2019-03-24T04:54:44.032Z,42.39
2019-03-24T04:57:12.917Z,42.42
2019-03-24T04:59:41.794Z,42.47
2019-03-24T05:02:10.690Z,42.53
2019-03-24T05:04:39.517Z,42.57
2019-03-24T05:07:09.589Z,42.64
2019-03-24T05:09:38.543Z,42.67
2019-03-24T05:12:07.401Z,42.74
2019-03-24T05:14:36.292Z,42.77
2019-03-24T05:17:05.157Z,42.80
2019-03-24T05:19:34.004Z,42.83
2019-03-24T05:22:02.876Z,42.85
2019-03-24T05:24:31.786Z,42.87
2019-03-24T05:27:00.630Z,42.91
2019-03-24T05:29:29.491Z,42.92
2019-03-24T05:31:58.358Z,42.95
2019-03-24T05:34:27.285Z,42.97
2019-03-24T05:36:56.120Z,42.97
2019-03-24T05:39:25.064Z,43.00
2019-03-24T05:41:54.340Z,43.00
2019-03-24T05:44:23.362Z,43.04
2019-03-24T05:46:52.253Z,43.07
2019-03-24T05:49:21.254Z,43.10
2019-03-24T05:51:50.162Z,43.12
2019-03-24T05:54:19.070Z,43.15
2019-03-24T05:56:47.914Z,43.20
2019-03-24T05:59:18.311Z,43.25
2019-03-24T06:01:47.514Z,43.28
2019-03-24T06:04:16.575Z,43.32
2019-03-24T06:06:46.516Z,43.35
2019-03-24T06:09:16.609Z,43.40
2019-03-24T06:11:45.514Z,43.44
2019-03-24T06:14:14.403Z,43.46
2019-03-24T06:16:43.272Z,43.52
2019-03-24T06:19:12.217Z,43.57
2019-03-24T06:21:41.071Z,43.60
2019-03-24T06:24:10.325Z,43.67
2019-03-24T06:26:39.657Z,43.70
2019-03-24T06:29:08.555Z,43.72
2019-03-24T06:31:37.409Z,43.80
2019-03-24T06:34:06.348Z,43.85
2019-03-24T06:36:36.212Z,43.87
2019-03-24T06:39:06.783Z,43.92
2019-03-24T06:41:36.080Z,43.97
2019-03-24T06:44:04.946Z,44.01
2019-03-24T06:46:35.727Z,44.04
2019-03-24T06:49:04.708Z,44.09
2019-03-24T06:51:33.569Z,44.10
2019-03-24T06:54:02.857Z,44.15
2019-03-24T06:56:31.716Z,44.19
2019-03-24T06:59:00.641Z,44.23
2019-03-24T07:01:29.547Z,44.24
2019-03-24T07:03:58.441Z,44.25
2019-03-24T07:06:27.312Z,44.28
2019-03-24T07:08:56.223Z,44.31
2019-03-24T07:11:25.247Z,44.29
2019-03-24T07:13:54.271Z,44.33
2019-03-24T07:16:23.178Z,44.36
2019-03-24T07:18:52.098Z,44.39
2019-03-24T07:21:21.429Z,44.39
2019-03-24T07:23:50.389Z,44.40
2019-03-24T07:26:19.423Z,44.40
2019-03-24T07:28:48.273Z,44.39
2019-03-24T07:31:18.650Z,44.37
2019-03-24T07:33:47.508Z,44.30
2019-03-24T07:36:16.426Z,44.21
2019-03-24T07:38:47.107Z,44.19
2019-03-24T07:41:17.604Z,44.13
2019-03-24T07:43:46.455Z,44.03
2019-03-24T07:46:15.374Z,43.99
2019-03-24T07:48:44.413Z,43.95
2019-03-24T07:51:13.312Z,43.85
2019-03-24T07:53:42.597Z,43.67
2019-03-24T07:56:11.514Z,43.51
2019-03-24T07:58:40.458Z,43.31
2019-03-24T08:01:09.402Z,43.08
2019-03-24T08:03:39.488Z,42.94
2019-03-24T08:06:08.489Z,42.94
2019-03-24T08:08:44.233Z,42.83
2019-03-24T08:11:12.345Z,42.79
2019-03-24T08:13:52.934Z,42.83
2019-03-24T08:16:12.021Z,42.79
2019-03-24T08:18:40.863Z,42.61
2019-03-24T08:21:09.731Z,42.50
2019-03-24T08:23:38.593Z,42.36
2019-03-24T08:26:07.514Z,42.26
2019-03-24T08:28:36.478Z,42.26
2019-03-24T08:31:05.436Z,42.15
2019-03-24T08:33:35.747Z,42.01
2019-03-24T08:36:04.679Z,41.85
2019-03-24T08:38:33.515Z,41.69
2019-03-24T08:41:02.648Z,41.54
2019-03-24T08:43:31.886Z,41.28
2019-03-24T08:46:00.897Z,41.08
2019-03-24T08:48:40.124Z,41.01
2019-03-24T08:51:00.782Z,40.90
2019-03-24T08:53:29.628Z,40.81
2019-03-24T08:55:58.940Z,40.71
2019-03-24T08:58:27.836Z,40.62
2019-03-24T09:00:57.093Z,40.44
2019-03-24T09:03:25.909Z,40.26
2019-03-24T09:05:56.586Z,40.10
2019-03-24T09:08:25.643Z,39.96
2019-03-24T09:10:54.672Z,39.82
2019-03-24T09:13:23.663Z,39.48
2019-03-24T09:15:54.226Z,39.16
2019-03-24T09:18:23.115Z,38.99
2019-03-24T09:20:52.449Z,38.79
2019-03-24T09:23:21.454Z,38.58
2019-03-24T09:25:50.771Z,38.33
2019-03-24T09:28:19.877Z,37.93
2019-03-24T09:30:48.925Z,37.89
2019-03-24T09:33:18.956Z,37.87
2019-03-24T09:35:47.848Z,37.69
2019-03-24T09:38:16.780Z,37.49
2019-03-24T09:40:45.805Z,37.48
2019-03-24T09:43:14.739Z,37.31
2019-03-24T09:45:43.623Z,37.17
2019-03-24T09:48:12.585Z,36.99
2019-03-24T09:50:41.500Z,36.95
2019-03-24T09:53:10.672Z,37.03
2019-03-24T09:55:39.549Z,36.86
2019-03-24T09:58:08.467Z,36.85
2019-03-24T10:00:37.360Z,36.64
2019-03-24T10:03:06.821Z,36.40
2019-03-24T10:05:35.731Z,36.20
2019-03-24T10:08:04.909Z,36.52
2019-03-24T10:10:33.793Z,36.54
2019-03-24T10:13:02.927Z,36.49
2019-03-24T10:15:32.643Z,36.17
2019-03-24T10:18:01.580Z,35.82
2019-03-24T10:20:30.757Z,35.64
2019-03-24T10:22:59.787Z,35.34
2019-03-24T10:25:28.699Z,34.98
2019-03-24T10:27:57.741Z,34.74
2019-03-24T10:30:26.641Z,34.65
2019-03-24T10:32:55.959Z,34.51
2019-03-24T10:35:24.805Z,34.60
2019-03-24T10:37:54.457Z,34.83
2019-03-24T10:40:28.598Z,34.93
2019-03-24T10:42:54.188Z,35.01
2019-03-24T10:45:23.065Z,35.02
2019-03-24T10:47:53.173Z,35.00
2019-03-24T10:50:22.056Z,34.65
2019-03-24T10:52:52.246Z,34.52
2019-03-24T10:55:22.298Z,34.54
2019-03-24T10:57:52.422Z,34.51
2019-03-24T11:00:40.414Z,34.37
2019-03-24T11:03:09.362Z,34.13
2019-03-24T11:05:38.628Z,33.89
2019-03-24T11:08:07.512Z,33.61
2019-03-24T11:10:36.556Z,33.42
2019-03-24T11:13:07.460Z,33.41
2019-03-24T11:15:37.441Z,33.25
2019-03-24T11:18:09.305Z,33.10
2019-03-24T11:20:38.579Z,33.16
2019-03-24T11:23:07.730Z,33.10
2019-03-24T11:25:36.568Z,33.00
2019-03-24T11:28:05.443Z,33.06
2019-03-24T11:30:34.344Z,32.87
2019-03-24T11:33:04.338Z,32.54
2019-03-24T11:35:33.311Z,32.47
2019-03-24T11:38:02.183Z,32.31
2019-03-24T11:40:31.105Z,32.10
2019-03-24T11:43:00.043Z,31.87
2019-03-24T11:45:28.859Z,31.66
2019-03-24T11:47:58.149Z,31.66
2019-03-24T11:50:27.006Z,31.55
2019-03-24T11:52:55.885Z,31.39
2019-03-24T11:55:24.761Z,31.21
2019-03-24T11:58:05.097Z,30.94
2019-03-24T12:00:44.923Z,30.71
2019-03-24T12:03:14.018Z,30.53
2019-03-24T12:05:42.885Z,30.33
2019-03-24T12:08:12.046Z,30.22
2019-03-24T12:10:40.919Z,30.14
2019-03-24T12:13:11.650Z,29.93
2019-03-24T12:15:40.550Z,29.50
2019-03-24T12:18:09.542Z,29.37
2019-03-24T12:20:38.483Z,29.77
2019-03-24T12:23:07.751Z,30.07
2019-03-24T12:25:36.594Z,30.09
2019-03-24T12:28:05.469Z,29.85
2019-03-24T12:30:34.590Z,29.55
2019-03-24T12:33:03.634Z,29.13
2019-03-24T12:35:32.451Z,28.87
2019-03-24T12:38:02.382Z,28.62
2019-03-24T12:40:31.381Z,28.32
2019-03-24T12:43:00.281Z,28.14
2019-03-24T12:45:29.125Z,27.97
2019-03-24T12:47:58.079Z,27.86
2019-03-24T12:50:31.640Z,27.81
2019-03-24T12:52:57.792Z,27.81
2019-03-24T12:55:27.997Z,27.72
2019-03-24T12:57:57.036Z,27.66
2019-03-24T13:00:37.742Z,27.56
2019-03-24T13:03:07.319Z,27.55
2019-03-24T13:05:36.356Z,27.56
2019-03-24T13:08:30.370Z,27.55
2019-03-24T13:10:59.449Z,27.48
2019-03-24T13:13:28.496Z,27.46
2019-03-24T13:16:01.040Z,27.37
2019-03-24T13:18:30.238Z,27.23
2019-03-24T13:20:59.162Z,27.05
2019-03-24T13:23:28.327Z,27.12
2019-03-24T13:25:57.328Z,27.16
2019-03-24T13:28:35.762Z,27.12
2019-03-24T13:31:04.625Z,27.10
2019-03-24T13:33:33.540Z,27.09
2019-03-24T13:36:10.338Z,27.10
2019-03-24T13:38:39.202Z,27.18
2019-03-24T13:41:08.592Z,27.24
2019-03-24T13:43:43.201Z,27.26
2019-03-24T13:46:12.646Z,27.19
2019-03-24T13:48:41.751Z,27.28
2019-03-24T13:51:20.276Z,27.23
2019-03-24T13:53:49.379Z,27.19
2019-03-24T13:56:19.403Z,27.25
2019-03-24T13:58:49.255Z,27.33
2019-03-24T14:01:18.124Z,27.36
2019-03-24T14:03:47.008Z,27.42
2019-03-24T14:06:16.248Z,27.47
2019-03-24T14:08:45.117Z,27.49
2019-03-24T14:11:14.281Z,27.48
2019-03-24T14:13:43.192Z,27.54
2019-03-24T14:16:12.128Z,27.64
2019-03-24T14:18:41.342Z,27.73
2019-03-24T14:21:10.384Z,27.81
2019-03-24T14:23:39.572Z,27.87
2019-03-24T14:26:08.500Z,27.93
2019-03-24T14:28:38.495Z,27.97
2019-03-24T14:31:07.395Z,28.08
2019-03-24T14:33:37.101Z,28.16
2019-03-24T14:36:06.012Z,28.14
2019-03-24T14:38:35.155Z,28.15
2019-03-24T14:41:04.949Z,28.21
2019-03-24T14:43:34.010Z,28.24
2019-03-24T14:46:03.072Z,28.26
2019-03-24T14:48:32.303Z,28.29
2019-03-24T14:51:01.197Z,28.36
2019-03-24T14:53:30.378Z,28.42
2019-03-24T14:55:59.370Z,28.53
2019-03-24T14:58:28.277Z,28.66
2019-03-24T15:00:57.562Z,28.76
2019-03-24T15:03:26.442Z,28.85
2019-03-24T15:05:55.453Z,28.95
2019-03-24T15:08:25.376Z,28.99
2019-03-24T15:10:54.275Z,29.05
2019-03-24T15:13:24.329Z,29.15
2019-03-24T15:15:53.399Z,29.27
2019-03-24T15:18:22.415Z,29.45
2019-03-24T15:20:51.320Z,29.50
2019-03-24T15:23:23.093Z,29.53
2019-03-24T15:25:52.493Z,29.62
2019-03-24T15:28:21.358Z,29.72
2019-03-24T15:30:50.286Z,29.81
2019-03-24T15:33:19.160Z,29.95
2019-03-24T15:35:48.361Z,30.04
2019-03-24T15:38:17.237Z,30.17
2019-03-24T15:40:46.140Z,30.22
2019-03-24T15:43:15.021Z,30.21
2019-03-24T15:45:44.043Z,30.25
2019-03-24T15:48:13.096Z,30.27
2019-03-24T15:50:42.040Z,30.27
2019-03-24T15:53:10.972Z,30.29
2019-03-24T15:55:39.912Z,30.34
2019-03-24T15:58:09.876Z,30.33
2019-03-24T16:00:47.033Z,30.42
2019-03-24T16:03:16.271Z,30.49
2019-03-24T16:05:45.183Z,30.52
2019-03-24T16:08:14.059Z,30.58
2019-03-24T16:10:43.341Z,30.63
2019-03-24T16:13:12.871Z,30.73
2019-03-24T16:15:41.815Z,30.76
2019-03-24T16:18:10.770Z,30.81
2019-03-24T16:20:41.053Z,30.86
2019-03-24T16:23:10.160Z,30.94
2019-03-24T16:25:39.530Z,30.99
2019-03-24T16:28:09.104Z,31.05
2019-03-24T16:30:38.272Z,31.13
2019-03-24T16:33:07.283Z,31.19
2019-03-24T16:35:36.214Z,31.26
2019-03-24T16:38:05.352Z,31.35
2019-03-24T16:40:35.005Z,31.43
2019-03-24T16:43:04.399Z,31.49
2019-03-24T16:45:35.051Z,31.48
2019-03-24T16:48:05.151Z,31.57
2019-03-24T16:50:34.267Z,31.64
2019-03-24T16:53:03.344Z,31.71
2019-03-24T16:55:32.581Z,31.78
2019-03-24T16:58:01.534Z,31.86
2019-03-24T17:00:30.566Z,31.94
2019-03-24T17:03:00.344Z,32.02
2019-03-24T17:05:29.875Z,32.08
2019-03-24T17:07:59.206Z,32.12
2019-03-24T17:10:28.064Z,32.19
2019-03-24T17:12:57.764Z,32.29
2019-03-24T17:15:27.075Z,32.35
2019-03-24T17:17:56.089Z,32.38
2019-03-24T17:20:24.967Z,32.48
2019-03-24T17:23:00.846Z,32.54
2019-03-24T17:25:30.246Z,32.63
2019-03-24T17:27:59.632Z,32.68
2019-03-24T17:30:28.793Z,32.71
2019-03-24T17:32:57.981Z,32.77
2019-03-24T17:35:26.939Z,32.81
2019-03-24T17:37:57.926Z,32.89
2019-03-24T17:40:27.046Z,32.94
2019-03-24T17:42:57.249Z,33.00
2019-03-24T17:45:26.685Z,33.08
2019-03-24T17:48:06.707Z,33.17
2019-03-24T17:50:37.649Z,33.25
2019-03-24T17:53:07.031Z,33.31
2019-03-24T17:55:36.370Z,33.41
2019-03-24T17:58:05.696Z,33.48
2019-03-24T18:00:42.199Z,33.50
2019-03-24T18:03:11.357Z,33.56
2019-03-24T18:05:40.349Z,33.61
2019-03-24T18:08:09.323Z,33.67
2019-03-24T18:10:38.589Z,33.75
2019-03-24T18:13:15.589Z,33.84
2019-03-24T18:15:48.547Z,33.96
2019-03-24T18:18:23.026Z,34.03
2019-03-24T18:20:51.997Z,34.11
2019-03-24T18:23:23.875Z,34.17
2019-03-24T18:25:52.852Z,34.24
2019-03-24T18:28:21.897Z,34.32
2019-03-24T18:30:50.993Z,34.38
2019-03-24T18:33:20.336Z,34.49
2019-03-24T18:35:58.155Z,34.55
2019-03-24T18:38:27.279Z,34.64
2019-03-24T18:41:03.657Z,34.72
2019-03-24T18:43:32.584Z,34.79
2019-03-24T18:46:02.771Z,34.88
2019-03-24T18:48:31.703Z,34.96
2019-03-24T18:51:00.742Z,35.03
2019-03-24T18:53:30.871Z,35.11
2019-03-24T18:55:59.758Z,35.16
2019-03-24T18:58:31.962Z,35.24
2019-03-24T19:01:00.537Z,35.35
2019-03-24T19:03:30.715Z,35.40
2019-03-24T19:05:59.610Z,35.49
2019-03-24T19:08:28.736Z,35.54
2019-03-24T19:10:57.641Z,35.64
2019-03-24T19:13:27.039Z,35.72
2019-03-24T19:15:56.097Z,35.78
2019-03-24T19:18:25.148Z,35.85
2019-03-24T19:20:55.187Z,35.93
2019-03-24T19:23:26.345Z,35.97
2019-03-24T19:25:55.528Z,36.05
2019-03-24T19:28:24.826Z,36.10
2019-03-24T19:30:53.775Z,36.14
2019-03-24T19:33:24.161Z,36.19
2019-03-24T19:35:54.825Z,36.25
2019-03-24T19:38:25.434Z,36.28
2019-03-24T19:40:54.456Z,36.32
2019-03-24T19:43:24.580Z,36.47
2019-03-24T19:45:53.630Z,36.56
2019-03-24T19:48:22.818Z,36.68
2019-03-24T19:50:51.756Z,36.79
2019-03-24T19:53:20.953Z,36.87
2019-03-24T19:55:49.902Z,36.94
2019-03-24T19:58:18.851Z,36.97
2019-03-24T20:00:47.778Z,37.01
2019-03-24T20:03:16.714Z,37.04
2019-03-24T20:05:46.114Z,37.08
2019-03-24T20:08:15.280Z,37.13
2019-03-24T20:10:44.792Z,37.20
2019-03-24T20:13:15.146Z,37.25
2019-03-24T20:15:44.371Z,37.29
2019-03-24T20:18:13.570Z,37.36
2019-03-24T20:20:42.769Z,37.40
2019-03-24T20:23:11.644Z,37.44
2019-03-24T20:25:59.169Z,37.55
2019-03-24T20:28:28.218Z,37.66
2019-03-24T20:30:59.144Z,37.73
2019-03-24T20:33:29.517Z,37.78
2019-03-24T20:35:58.490Z,37.82
2019-03-24T20:38:27.995Z,37.86
2019-03-24T20:40:57.549Z,37.90
2019-03-24T20:43:28.355Z,37.94
2019-03-24T20:45:57.319Z,38.03
2019-03-24T20:48:27.497Z,38.11
2019-03-24T20:51:10.418Z,38.23
2019-03-24T20:53:39.517Z,38.32
2019-03-24T20:56:08.544Z,38.43
2019-03-24T20:58:37.576Z,38.55
2019-03-24T21:01:07.928Z,38.65
2019-03-24T21:03:36.960Z,38.74
2019-03-24T21:06:05.841Z,38.83
2019-03-24T21:08:34.831Z,38.88
2019-03-24T21:11:04.079Z,38.90
2019-03-24T21:13:32.978Z,38.94
2019-03-24T21:16:02.414Z,39.01
2019-03-24T21:18:39.756Z,39.05
2019-03-24T21:21:09.252Z,39.09
2019-03-24T21:23:45.893Z,39.12
2019-03-24T21:26:16.049Z,39.15
2019-03-24T21:28:45.315Z,39.19
2019-03-24T21:31:14.487Z,39.26
2019-03-24T21:33:43.517Z,39.37
2019-03-24T21:36:12.551Z,39.43
2019-03-24T21:38:41.426Z,39.50
2019-03-24T21:41:12.211Z,39.61
2019-03-24T21:43:41.211Z,39.68
2019-03-24T21:46:10.133Z,39.79
2019-03-24T21:48:39.098Z,39.83
2019-03-24T21:51:08.387Z,39.89
2019-03-24T21:53:40.850Z,39.97
2019-03-24T21:56:08.641Z,40.01
2019-03-24T21:58:37.552Z,40.05
2019-03-24T22:01:07.149Z,40.08
2019-03-24T22:03:36.517Z,40.15
2019-03-24T22:06:05.461Z,40.19
2019-03-24T22:08:34.363Z,40.20
2019-03-24T22:11:03.749Z,40.25
2019-03-24T22:13:32.670Z,40.28
2019-03-24T22:16:01.551Z,40.31
2019-03-24T22:18:30.825Z,40.34
2019-03-24T22:21:00.981Z,40.38
2019-03-24T22:23:29.898Z,40.41
2019-03-24T22:25:59.033Z,40.42
2019-03-24T22:28:27.955Z,40.43
2019-03-24T22:30:56.831Z,40.53
2019-03-24T22:33:27.727Z,40.60
2019-03-24T22:35:57.834Z,40.65
2019-03-24T22:38:27.469Z,40.68
2019-03-24T22:40:56.323Z,40.74
2019-03-24T22:43:27.016Z,40.78
2019-03-24T22:45:55.897Z,40.85
2019-03-24T22:48:24.798Z,40.95
2019-03-24T22:50:53.800Z,41.04
2019-03-24T22:53:22.721Z,41.14
2019-03-24T22:55:51.595Z,41.25
2019-03-24T22:58:20.524Z,41.36
2019-03-24T23:00:55.015Z,41.44
2019-03-24T23:03:25.255Z,41.50
2019-03-24T23:05:54.936Z,41.54
2019-03-24T23:08:23.844Z,41.60
2019-03-24T23:10:52.738Z,41.64
2019-03-24T23:13:21.639Z,41.71
2019-03-24T23:15:50.537Z,41.78
2019-03-24T23:18:19.802Z,41.82
2019-03-24T23:20:48.732Z,41.87
2019-03-24T23:23:17.745Z,41.90
2019-03-24T23:25:46.673Z,41.95
2019-03-24T23:28:15.860Z,41.97
2019-03-24T23:30:44.876Z,42.03
2019-03-24T23:33:15.697Z,42.08
2019-03-24T23:35:45.516Z,42.12
2019-03-24T23:38:14.556Z,42.18
2019-03-24T23:40:43.601Z,42.26
2019-03-24T23:43:12.574Z,42.34
2019-03-24T23:45:41.808Z,42.36
2019-03-24T23:48:11.064Z,42.40
2019-03-24T23:50:41.105Z,42.43
2019-03-24T23:53:09.945Z,42.46
2019-03-24T23:55:39.128Z,42.51
2019-03-24T23:58:07.990Z,42.55
